createdAt,value
2023-01-23T00:00:37.830Z,101196.09
2023-01-23T00:03:26.086Z,101238.91
2023-01-23T00:06:16.441Z,101241.09
2023-01-23T00:09:05.852Z,101234.28
2023-01-23T00:11:53.807Z,101227.25
2023-01-23T00:14:41.728Z,101235.72
2023-01-23T00:17:29.663Z,101237.09
2023-01-23T00:20:17.986Z,101228.19
2023-01-23T00:23:06.069Z,101229.59
2023-01-23T00:25:55.348Z,101234.78
2023-01-23T00:28:43.795Z,101225.31
2023-01-23T00:31:35.257Z,101231.50
2023-01-23T00:34:23.224Z,101225.31
2023-01-23T00:37:11.145Z,101220.41
2023-01-23T00:39:59.047Z,101221.56
2023-01-23T00:42:48.397Z,101219.44
2023-01-23T00:45:37.972Z,101208.66
2023-01-23T00:48:26.709Z,101216.56
2023-01-23T00:51:14.849Z,101217.44
2023-01-23T00:54:03.688Z,101172.31
2023-01-23T00:56:51.672Z,101216.19
2023-01-23T00:59:40.974Z,101221.84
2023-01-23T01:02:28.958Z,101228.06
2023-01-23T01:05:18.194Z,101223.47
2023-01-23T01:08:08.395Z,101227.75
2023-01-23T01:10:56.331Z,101228.22
2023-01-23T01:13:46.420Z,101234.16
2023-01-23T01:16:35.873Z,101237.66
2023-01-23T01:19:23.985Z,101251.94
2023-01-23T01:22:12.191Z,101254.38
2023-01-23T01:25:00.280Z,101251.06
2023-01-23T01:27:48.353Z,101215.97
2023-01-23T01:30:36.741Z,101264.75
2023-01-23T01:33:26.477Z,101263.16
2023-01-23T01:36:16.448Z,101265.59
2023-01-23T01:39:07.542Z,101262.91
2023-01-23T01:41:55.494Z,101271.03
2023-01-23T01:44:54.333Z,101272.94
2023-01-23T01:47:42.475Z,101270.09
2023-01-23T01:50:31.925Z,101266.84
2023-01-23T01:53:21.765Z,101269.28
2023-01-23T01:56:13.484Z,101264.41
2023-01-23T01:59:03.080Z,101261.75
2023-01-23T02:01:55.237Z,101266.66
2023-01-23T02:04:48.518Z,101273.13
2023-01-23T02:07:43.209Z,101270.69
2023-01-23T02:10:32.363Z,101273.50
2023-01-23T02:13:24.772Z,101273.03
2023-01-23T02:16:15.858Z,101276.03
2023-01-23T02:19:09.172Z,101182.75
2023-01-23T02:22:04.547Z,101265.38
2023-01-23T02:25:00.190Z,101271.09
2023-01-23T02:27:49.820Z,101267.66
2023-01-23T02:30:39.909Z,101267.28
2023-01-23T02:33:48.446Z,101275.19
2023-01-23T02:36:37.331Z,101286.88
2023-01-23T02:39:28.145Z,101280.06
2023-01-23T02:42:17.524Z,101274.00
2023-01-23T02:45:12.256Z,101279.03
2023-01-23T02:48:01.505Z,101275.69
2023-01-23T02:50:49.638Z,101286.03
2023-01-23T02:53:37.999Z,101281.00
2023-01-23T02:56:25.984Z,101284.31
2023-01-23T02:59:31.680Z,101283.03
2023-01-23T03:02:21.116Z,101288.75
2023-01-23T03:05:10.252Z,101294.06
2023-01-23T03:07:58.537Z,101286.75
2023-01-23T03:10:46.490Z,101286.38
2023-01-23T03:13:34.455Z,101284.44
2023-01-23T03:16:22.394Z,101287.31
2023-01-23T03:19:11.783Z,101289.59
2023-01-23T03:22:00.100Z,101219.47
2023-01-23T03:24:48.329Z,101291.69
2023-01-23T03:27:37.352Z,101280.56
2023-01-23T03:30:25.552Z,101290.31
2023-01-23T03:33:13.553Z,101284.38
2023-01-23T03:36:03.239Z,101289.34
2023-01-23T03:39:08.921Z,101293.38
2023-01-23T03:41:57.387Z,101297.09
2023-01-23T03:44:47.758Z,101296.69
2023-01-23T03:47:35.877Z,101290.13
2023-01-23T03:50:23.854Z,101301.03
2023-01-23T03:53:13.258Z,101300.97
2023-01-23T03:56:01.802Z,101300.00
2023-01-23T03:58:50.611Z,101303.84
2023-01-23T04:01:52.115Z,101028.56
2023-01-23T04:04:40.201Z,101299.41
2023-01-23T04:07:29.524Z,101295.19
2023-01-23T04:10:19.237Z,101292.47
2023-01-23T04:13:12.822Z,101295.59
2023-01-23T04:16:04.367Z,101296.94
2023-01-23T04:18:52.468Z,101297.63
2023-01-23T04:21:40.770Z,101293.31
2023-01-23T04:24:29.381Z,101303.22
2023-01-23T04:27:18.673Z,101304.88
2023-01-23T04:30:07.733Z,101300.88
2023-01-23T04:32:56.397Z,101297.53
2023-01-23T04:35:50.632Z,101303.22
2023-01-23T04:38:38.730Z,101310.75
2023-01-23T04:41:41.987Z,101315.34
2023-01-23T04:44:40.623Z,101322.72
2023-01-23T04:48:00.444Z,101329.72
2023-01-23T04:50:49.715Z,101324.84
2023-01-23T04:53:38.208Z,101324.59
2023-01-23T04:56:26.237Z,101324.88
2023-01-23T04:59:16.682Z,101321.34
2023-01-23T05:02:07.109Z,101331.09
2023-01-23T05:05:01.681Z,101331.94
2023-01-23T05:07:50.463Z,101346.28
2023-01-23T05:10:38.965Z,101343.56
2023-01-23T05:13:29.701Z,101344.22
2023-01-23T05:16:18.159Z,101335.88
2023-01-23T05:19:25.944Z,101341.22
2023-01-23T05:22:15.437Z,101346.88
2023-01-23T05:25:04.011Z,101352.31
2023-01-23T05:27:52.887Z,101355.28
2023-01-23T05:30:41.230Z,101345.59
2023-01-23T05:33:44.281Z,101358.59
2023-01-23T05:36:33.734Z,101361.81
2023-01-23T05:39:22.112Z,101358.97
2023-01-23T05:42:10.600Z,101367.06
2023-01-23T05:45:18.002Z,101371.69
2023-01-23T05:48:06.550Z,101368.19
2023-01-23T05:50:54.823Z,101373.56
2023-01-23T05:53:44.420Z,101374.34
2023-01-23T05:56:33.652Z,101371.34
2023-01-23T05:59:40.072Z,101375.41
2023-01-23T06:02:47.414Z,101384.41
2023-01-23T06:06:05.865Z,101382.50
2023-01-23T06:08:55.188Z,101383.00
2023-01-23T06:11:43.143Z,101387.09
2023-01-23T06:14:31.100Z,101380.59
2023-01-23T06:17:19.137Z,101383.28
2023-01-23T06:20:08.581Z,101379.69
2023-01-23T06:22:57.772Z,101395.91
2023-01-23T06:25:48.895Z,101390.59
2023-01-23T06:28:36.924Z,101394.06
2023-01-23T06:31:27.168Z,101346.03
2023-01-23T06:34:18.918Z,101395.72
2023-01-23T06:37:16.761Z,101398.41
2023-01-23T06:40:08.120Z,101391.88
2023-01-23T06:42:58.219Z,101386.06
2023-01-23T06:45:46.514Z,101396.72
2023-01-23T06:48:34.542Z,101398.91
2023-01-23T06:51:22.582Z,101394.59
2023-01-23T06:54:11.095Z,101393.28
2023-01-23T06:57:00.090Z,101399.50
2023-01-23T06:59:49.927Z,101401.91
2023-01-23T07:02:40.484Z,101412.50
2023-01-23T07:05:28.581Z,101406.84
2023-01-23T07:08:16.690Z,101409.19
2023-01-23T07:11:04.758Z,101419.53
2023-01-23T07:13:52.725Z,101425.97
2023-01-23T07:16:42.217Z,101432.28
2023-01-23T07:19:30.588Z,101435.22
2023-01-23T07:22:22.094Z,101409.34
2023-01-23T07:25:10.393Z,101437.13
2023-01-23T07:27:58.392Z,101449.41
2023-01-23T07:30:47.863Z,101453.81
2023-01-23T07:33:37.202Z,101464.31
2023-01-23T07:36:25.191Z,101474.19
2023-01-23T07:39:13.140Z,101463.81
2023-01-23T07:42:01.225Z,101466.53
2023-01-23T07:44:49.981Z,101466.84
2023-01-23T07:47:39.474Z,101461.38
2023-01-23T07:50:28.719Z,101460.63
2023-01-23T07:53:16.626Z,101471.91
2023-01-23T07:56:06.216Z,101478.59
2023-01-23T07:58:57.279Z,101480.81
2023-01-23T08:01:45.634Z,101481.09
2023-01-23T08:04:33.592Z,101474.78
2023-01-23T08:07:23.906Z,101481.00
2023-01-23T08:10:12.631Z,101485.84
2023-01-23T08:13:00.502Z,101474.63
2023-01-23T08:15:48.413Z,101477.34
2023-01-23T08:18:36.325Z,101475.00
2023-01-23T08:21:24.244Z,101465.34
2023-01-23T08:24:14.192Z,101471.06
2023-01-23T08:27:02.152Z,101484.97
2023-01-23T08:29:50.055Z,101478.00
2023-01-23T08:32:37.993Z,101475.19
2023-01-23T08:35:25.948Z,101474.66
2023-01-23T08:38:13.865Z,101489.88
2023-01-23T08:41:03.727Z,101433.94
2023-01-23T08:43:52.083Z,101479.13
2023-01-23T08:46:40.335Z,101477.47
2023-01-23T08:49:28.255Z,101481.53
2023-01-23T08:52:16.221Z,101475.56
2023-01-23T08:55:04.250Z,101478.34
2023-01-23T08:57:53.519Z,101485.50
2023-01-23T09:00:41.672Z,101487.91
2023-01-23T09:03:29.663Z,101482.38
2023-01-23T09:06:19.724Z,101486.53
2023-01-23T09:09:07.642Z,101483.94
2023-01-23T09:11:56.398Z,101485.63
2023-01-23T09:14:45.630Z,101491.03
2023-01-23T09:17:33.592Z,101493.53
2023-01-23T09:20:21.766Z,101491.06
2023-01-23T09:23:09.891Z,101490.28
2023-01-23T09:26:03.684Z,101495.09
2023-01-23T09:28:51.609Z,101491.06
2023-01-23T09:31:40.966Z,101502.16
2023-01-23T09:34:29.176Z,101503.66
2023-01-23T09:37:17.738Z,101442.50
2023-01-23T09:40:06.404Z,101495.00
2023-01-23T09:42:57.794Z,101493.88
2023-01-23T09:45:53.441Z,101494.13
2023-01-23T09:48:46.185Z,101494.13
2023-01-23T09:51:45.747Z,101494.69
2023-01-23T09:54:43.086Z,101501.25
2023-01-23T09:57:35.920Z,101508.69
2023-01-23T10:00:27.501Z,101503.41
2023-01-23T10:03:17.229Z,101508.38
2023-01-23T10:06:19.432Z,101508.63
2023-01-23T10:09:25.032Z,101507.81
2023-01-23T10:12:22.035Z,101512.03
2023-01-23T10:15:28.864Z,101510.03
2023-01-23T10:18:25.173Z,101495.88
2023-01-23T10:21:23.500Z,101511.38
2023-01-23T10:24:40.152Z,101520.00
2023-01-23T10:27:35.663Z,101475.03
2023-01-23T10:30:29.847Z,101508.41
2023-01-23T10:33:19.144Z,101504.53
2023-01-23T10:36:23.771Z,101448.03
2023-01-23T10:39:15.995Z,101502.38
2023-01-23T10:42:04.006Z,101507.50
2023-01-23T10:44:52.281Z,101473.66
2023-01-23T10:47:54.550Z,101498.19
2023-01-23T10:50:42.958Z,101493.72
2023-01-23T10:53:32.243Z,101492.91
2023-01-23T10:56:21.330Z,101492.91
2023-01-23T10:59:22.413Z,101497.25
2023-01-23T11:02:22.307Z,101495.09
2023-01-23T11:05:51.182Z,101497.13
2023-01-23T11:08:53.218Z,101509.47
2023-01-23T11:11:41.178Z,101501.03
2023-01-23T11:14:29.261Z,101496.03
2023-01-23T11:17:21.486Z,101495.13
2023-01-23T11:20:22.247Z,101497.97
2023-01-23T11:23:17.525Z,101495.53
2023-01-23T11:26:06.888Z,101488.91
2023-01-23T11:28:54.782Z,101479.44
2023-01-23T11:31:44.061Z,101489.50
2023-01-23T11:34:37.496Z,101481.84
2023-01-23T11:37:29.177Z,101484.50
2023-01-23T11:40:19.660Z,101489.28
2023-01-23T11:43:15.027Z,101479.94
2023-01-23T11:46:41.635Z,101484.56
2023-01-23T11:49:51.227Z,101473.84
2023-01-23T11:52:50.309Z,101471.97
2023-01-23T11:55:58.730Z,101475.50
2023-01-23T11:59:08.977Z,101479.63
2023-01-23T12:02:14.486Z,101475.53
2023-01-23T12:05:18.531Z,101465.81
2023-01-23T12:08:20.462Z,101468.31
2023-01-23T12:11:16.299Z,101473.53
2023-01-23T12:14:15.768Z,101452.22
2023-01-23T12:17:14.565Z,101457.66
2023-01-23T12:20:26.434Z,101461.03
2023-01-23T12:23:27.096Z,101455.00
2023-01-23T12:26:19.381Z,101455.59
2023-01-23T12:29:37.431Z,101444.75
2023-01-23T12:32:44.657Z,101446.03
2023-01-23T12:35:48.644Z,101448.44
2023-01-23T12:38:46.014Z,101437.56
2023-01-23T12:41:37.978Z,101444.72
2023-01-23T12:44:35.014Z,101438.41
2023-01-23T12:47:28.015Z,101444.03
2023-01-23T12:50:21.597Z,101434.47
2023-01-23T12:53:13.239Z,101437.28
2023-01-23T12:56:07.187Z,101434.59
2023-01-23T12:59:07.900Z,101256.31
2023-01-23T13:02:06.573Z,101434.66
2023-01-23T13:05:07.781Z,101433.06
2023-01-23T13:08:03.933Z,101433.47
2023-01-23T13:11:23.489Z,101420.06
2023-01-23T13:14:32.815Z,101364.94
2023-01-23T13:17:37.378Z,101433.88
2023-01-23T13:20:46.644Z,101426.16
2023-01-23T13:23:36.594Z,101425.19
2023-01-23T13:26:29.072Z,101424.03
2023-01-23T13:29:48.359Z,101425.94
2023-01-23T13:32:37.624Z,101438.28
2023-01-23T13:35:55.876Z,101419.84
2023-01-23T13:38:43.785Z,101428.44
2023-01-23T13:41:32.484Z,101419.03
2023-01-23T13:44:35.802Z,101418.81
2023-01-23T14:20:39.388Z,101379.13
2023-01-23T14:23:32.075Z,101370.22
2023-01-23T14:26:25.673Z,101376.47
2023-01-23T14:29:22.247Z,101385.28
2023-01-23T14:32:23.750Z,101374.63
2023-01-23T14:35:17.544Z,101374.63
2023-01-23T14:38:07.996Z,101377.06
2023-01-23T14:40:59.161Z,101386.53
2023-01-23T14:43:47.833Z,101379.13
2023-01-23T14:46:40.019Z,101376.41
2023-01-23T14:49:32.255Z,101381.63
2023-01-23T14:52:24.409Z,101378.38
2023-01-23T14:55:29.323Z,101385.66
2023-01-23T14:58:24.407Z,101381.69
2023-01-23T15:01:12.440Z,101376.47
2023-01-23T15:04:03.200Z,101379.34
2023-01-23T15:06:53.339Z,101372.81
2023-01-23T15:09:46.438Z,101387.88
2023-01-23T15:12:34.430Z,101385.13
2023-01-23T15:15:25.984Z,101383.16
2023-01-23T15:18:22.691Z,101380.66
2023-01-23T15:21:10.668Z,101378.09
2023-01-23T15:24:07.936Z,101373.47
2023-01-23T15:27:03.444Z,101378.94
2023-01-23T15:29:51.459Z,101384.22
2023-01-23T15:32:40.943Z,101376.81
2023-01-23T15:35:28.978Z,101390.28
2023-01-23T15:38:18.192Z,101383.78
2023-01-23T15:41:10.128Z,101390.97
2023-01-23T15:43:58.093Z,101380.75
2023-01-23T15:46:46.315Z,101379.28
2023-01-23T15:49:37.110Z,101374.25
2023-01-23T15:52:26.843Z,101380.59
2023-01-23T15:55:16.160Z,101382.72
2023-01-23T15:58:04.166Z,101384.19
2023-01-23T16:00:52.096Z,101384.00
2023-01-23T16:03:40.029Z,101375.59
2023-01-23T16:06:29.524Z,101381.16
2023-01-23T16:09:26.868Z,101383.38
2023-01-23T16:12:18.033Z,101377.22
2023-01-23T16:15:15.257Z,101369.47
2023-01-23T16:18:04.457Z,101366.78
2023-01-23T16:20:52.649Z,101366.56
2023-01-23T16:23:47.490Z,101365.84
2023-01-23T16:26:35.970Z,101363.66
2023-01-23T16:29:28.845Z,101372.34
2023-01-23T16:32:17.446Z,101364.53
2023-01-23T16:35:06.505Z,101374.28
2023-01-23T16:37:54.883Z,101369.16
2023-01-23T16:40:44.166Z,101372.13
2023-01-23T16:43:32.378Z,101367.28
2023-01-23T16:46:20.514Z,101371.63
2023-01-23T16:49:08.454Z,101363.78
2023-01-23T16:51:58.958Z,101365.44
2023-01-23T16:54:46.860Z,101363.53
2023-01-23T16:57:36.109Z,101373.28
2023-01-23T17:00:33.899Z,101370.84
2023-01-23T17:03:25.559Z,101371.06
2023-01-23T17:06:14.890Z,101389.75
2023-01-23T17:09:02.838Z,101386.50
2023-01-23T17:11:54.176Z,101379.47
2023-01-23T17:14:46.768Z,101386.22
2023-01-23T17:17:36.600Z,101329.97
2023-01-23T17:20:24.505Z,101385.69
2023-01-23T17:23:14.124Z,101382.41
2023-01-23T17:26:02.057Z,101380.69
2023-01-23T17:28:50.128Z,101382.56
2023-01-23T17:31:40.311Z,101341.53
2023-01-23T17:34:33.758Z,101392.09
2023-01-23T17:37:29.403Z,101396.91
2023-01-23T17:40:17.686Z,101331.22
2023-01-23T17:43:06.765Z,101395.44
2023-01-23T17:45:55.374Z,101378.38
2023-01-23T17:48:44.684Z,101399.59
2023-01-23T17:51:33.569Z,101396.31
2023-01-23T17:54:21.593Z,101399.72
2023-01-23T17:57:09.661Z,101405.22
2023-01-23T17:59:57.595Z,101393.84
2023-01-23T18:02:47.090Z,101404.41
2023-01-23T18:05:36.378Z,101410.69
2023-01-23T18:08:24.617Z,101405.00
2023-01-23T18:11:18.685Z,101399.34
2023-01-23T18:14:29.942Z,101400.47
2023-01-23T18:17:30.026Z,101389.13
2023-01-23T18:20:20.655Z,101374.50
2023-01-23T18:23:12.543Z,101302.69
2023-01-23T18:26:14.593Z,101397.41
2023-01-23T18:29:16.921Z,101389.00
2023-01-23T18:36:35.393Z,101416.50
2023-01-23T18:39:27.887Z,101419.72
2023-01-23T18:42:58.404Z,101424.53
2023-01-23T18:45:27.809Z,101435.78
2023-01-23T18:47:57.132Z,101311.22
2023-01-23T18:50:26.974Z,101449.78
2023-01-23T18:53:13.188Z,101430.53
2023-01-23T18:55:49.949Z,101447.94
2023-01-23T18:58:31.872Z,101443.81
2023-01-23T19:01:16.493Z,101450.78
2023-01-23T19:03:46.484Z,101450.59
2023-01-23T19:06:22.196Z,101456.00
2023-01-23T19:08:50.585Z,101452.16
2023-01-23T19:11:33.644Z,101457.00
2023-01-23T19:14:12.075Z,101452.88
2023-01-23T19:16:46.540Z,101456.06
2023-01-23T19:19:24.095Z,101457.72
2023-01-23T19:21:52.480Z,101454.25
2023-01-23T19:24:21.303Z,101456.44
2023-01-23T19:26:50.047Z,101448.00
2023-01-23T19:29:22.305Z,101439.50
2023-01-23T19:32:07.240Z,101458.22
2023-01-23T19:34:35.263Z,101448.44
2023-01-23T19:37:03.514Z,101466.91
2023-01-23T19:39:31.226Z,101464.38
2023-01-23T19:42:00.156Z,101475.97
2023-01-23T19:44:30.201Z,101460.69
2023-01-23T19:46:58.027Z,101462.66
2023-01-23T19:49:25.995Z,101463.25
2023-01-23T19:51:53.811Z,101462.41
2023-01-23T19:54:24.034Z,101458.66
2023-01-23T19:56:51.987Z,101464.38
2023-01-23T19:59:19.663Z,101461.84
2023-01-23T20:01:51.487Z,101459.31
2023-01-23T20:04:21.503Z,101454.34
2023-01-23T20:06:51.665Z,101463.91
2023-01-23T20:09:19.802Z,101463.56
2023-01-23T20:11:48.733Z,101423.41
2023-01-23T20:14:16.633Z,101462.31
2023-01-23T20:16:44.595Z,101460.56
2023-01-23T20:19:14.457Z,101466.25
2023-01-23T20:21:42.206Z,101460.28
2023-01-23T20:24:10.102Z,101465.09
2023-01-23T20:26:38.225Z,101464.81
2023-01-23T20:29:08.128Z,101455.31
2023-01-23T20:31:36.596Z,101442.16
2023-01-23T20:34:04.582Z,101459.47
2023-01-23T20:36:33.675Z,101450.81
2023-01-23T20:39:01.365Z,101455.38
2023-01-23T20:41:28.988Z,101454.91
2023-01-23T20:43:56.898Z,101451.56
2023-01-23T20:46:24.564Z,101454.66
2023-01-23T20:48:52.261Z,101461.81
2023-01-23T20:51:20.300Z,101462.66
2023-01-23T20:53:48.302Z,101460.19
2023-01-23T20:56:17.855Z,101463.72
2023-01-23T20:59:04.729Z,101455.63
2023-01-23T21:01:54.461Z,101463.97
2023-01-23T21:04:24.372Z,101468.78
2023-01-23T21:06:52.116Z,101472.53
2023-01-23T21:09:21.684Z,101474.81
2023-01-23T21:11:50.956Z,101466.88
2023-01-23T21:14:19.551Z,101474.38
2023-01-23T21:16:47.943Z,101466.06
2023-01-23T21:19:16.354Z,101477.72
2023-01-23T21:21:44.282Z,101480.69
2023-01-23T21:24:12.649Z,101488.06
2023-01-23T21:26:41.863Z,101492.03
2023-01-23T21:29:09.653Z,101483.16
2023-01-23T21:31:40.198Z,101493.00
2023-01-23T21:34:10.472Z,101489.75
2023-01-23T21:36:39.017Z,101460.75
2023-01-23T21:39:09.430Z,101501.84
2023-01-23T21:41:38.614Z,101500.75
2023-01-23T21:44:07.744Z,101493.97
2023-01-23T21:46:35.431Z,101491.16
2023-01-23T21:49:03.125Z,101493.50
2023-01-23T21:51:32.178Z,101493.78
2023-01-23T21:53:59.861Z,101497.78
2023-01-23T21:56:27.519Z,101492.91
2023-01-23T21:58:55.272Z,101495.63
2023-01-23T22:01:36.069Z,101490.81
2023-01-23T22:04:06.416Z,101505.75
2023-01-23T22:06:35.615Z,101504.41
2023-01-23T22:09:03.995Z,101504.13
2023-01-23T22:11:32.043Z,101506.66
2023-01-23T22:14:00.057Z,101512.25
2023-01-23T22:16:47.025Z,101512.66
2023-01-23T22:19:16.580Z,101511.56
2023-01-23T22:21:46.248Z,101515.56
2023-01-23T22:24:14.089Z,101507.94
2023-01-23T22:26:41.819Z,101504.00
2023-01-23T22:29:09.579Z,101507.97
2023-01-23T22:31:39.017Z,101514.44
2023-01-23T22:34:06.785Z,101513.66
2023-01-23T22:36:34.498Z,101511.91
2023-01-23T22:39:02.125Z,101522.19
2023-01-23T22:41:29.856Z,101459.06
2023-01-23T22:43:59.229Z,101525.84
2023-01-23T22:46:27.415Z,101517.66
2023-01-23T22:48:56.470Z,101521.38
2023-01-23T22:51:26.370Z,101518.81
2023-01-23T22:53:54.625Z,101521.56
2023-01-23T22:56:22.984Z,101520.16
2023-01-23T22:58:52.931Z,101508.03
2023-01-23T23:01:22.950Z,101510.59
2023-01-23T23:03:51.131Z,101522.38
2023-01-23T23:06:20.890Z,101516.63
2023-01-23T23:08:49.151Z,101507.34
2023-01-23T23:11:19.040Z,101521.19
2023-01-23T23:13:47.103Z,101522.59
2023-01-23T23:16:17.707Z,101529.69
2023-01-23T23:18:47.009Z,101529.06
2023-01-23T23:21:16.706Z,101524.28
2023-01-23T23:23:46.331Z,101526.44
2023-01-23T23:26:14.924Z,101491.31
2023-01-23T23:28:43.068Z,101521.28
2023-01-23T23:31:11.112Z,101530.84
2023-01-23T23:33:39.145Z,101532.44
2023-01-23T23:36:07.686Z,101525.59
2023-01-23T23:38:35.435Z,101509.66
2023-01-23T23:41:06.435Z,101522.97
2023-01-23T23:43:35.071Z,101521.09
2023-01-23T23:46:05.624Z,101521.53
2023-01-23T23:48:35.221Z,101517.09
2023-01-23T23:51:03.651Z,101514.47
2023-01-23T23:53:32.003Z,101523.63
2023-01-23T23:55:59.736Z,101528.03
2023-01-23T23:58:28.891Z,101527.88
